createdAt,value
2018-09-01T00:00:24.441Z,83.99
2018-09-01T00:02:52.973Z,84.61
2018-09-01T00:05:21.433Z,84.80
2018-09-01T00:07:49.954Z,84.86
2018-09-01T00:10:18.445Z,85.09
2018-09-01T00:12:47.134Z,84.63
2018-09-01T00:15:15.589Z,85.07
2018-09-01T00:17:44.124Z,85.27
2018-09-01T00:20:12.565Z,85.40
2018-09-01T00:22:41.082Z,85.46
2018-09-01T00:25:09.569Z,85.70
2018-09-01T00:27:38.078Z,85.48
2018-09-01T00:30:06.883Z,85.79
2018-09-01T00:32:35.328Z,85.28
2018-09-01T00:35:03.921Z,85.97
2018-09-01T00:37:37.756Z,85.41
2018-09-01T00:40:06.581Z,84.82
2018-09-01T00:42:35.490Z,85.34
2018-09-01T00:45:04.109Z,85.15
2018-09-01T00:47:32.548Z,85.46
2018-09-01T00:50:01.693Z,85.53
2018-09-01T00:52:30.152Z,85.12
2018-09-01T00:54:58.638Z,85.20
2018-09-01T00:57:27.143Z,85.01
2018-09-01T00:59:55.675Z,84.42
2018-09-01T01:02:24.137Z,84.84
2018-09-01T01:04:52.608Z,85.32
2018-09-01T01:07:21.558Z,85.22
2018-09-01T01:09:50.031Z,85.99
2018-09-01T01:12:18.509Z,85.15
2018-09-01T01:14:47.064Z,84.70
2018-09-01T01:17:15.566Z,85.72
2018-09-01T01:19:44.065Z,85.95
2018-09-01T01:22:12.529Z,85.44
2018-09-01T01:24:40.984Z,85.07
2018-09-01T01:27:09.426Z,85.11
2018-09-01T01:29:38.314Z,84.75
2018-09-01T01:32:06.772Z,85.14
2018-09-01T01:34:35.216Z,85.43
2018-09-01T01:37:04.101Z,85.77
2018-09-01T01:39:33.041Z,86.80
2018-09-01T01:42:01.562Z,85.95
2018-09-01T01:44:30.078Z,85.61
2018-09-01T01:46:58.574Z,85.62
2018-09-01T01:49:27.020Z,85.87
2018-09-01T01:51:55.492Z,86.10
2018-09-01T01:54:23.948Z,85.81
2018-09-01T01:56:52.554Z,86.30
2018-09-01T01:59:21.049Z,85.35
2018-09-01T02:01:49.564Z,85.45
2018-09-01T02:04:18.109Z,85.15
2018-09-01T02:06:46.752Z,86.33
2018-09-01T02:09:15.214Z,86.56
2018-09-01T02:11:43.721Z,86.58
2018-09-01T02:14:12.190Z,86.09
2018-09-01T02:16:40.668Z,85.66
2018-09-01T02:19:09.115Z,84.84
2018-09-01T02:21:37.572Z,85.63
2018-09-01T02:24:06.282Z,86.29
2018-09-01T02:26:34.827Z,86.40
2018-09-01T02:29:03.278Z,85.60
2018-09-01T02:31:31.734Z,86.03
2018-09-01T02:34:00.621Z,86.22
2018-09-01T02:36:29.113Z,86.31
2018-09-01T02:38:57.601Z,86.44
2018-09-01T02:41:26.081Z,86.80
2018-09-01T02:43:54.532Z,87.02
2018-09-01T02:46:23.026Z,87.23
2018-09-01T02:48:51.489Z,87.03
2018-09-01T02:51:19.929Z,86.80
2018-09-01T02:53:48.449Z,86.72
2018-09-01T02:56:16.932Z,86.68
2018-09-01T02:58:45.441Z,85.76
2018-09-01T03:01:19.149Z,86.23
2018-09-01T03:03:47.615Z,86.23
2018-09-01T03:06:16.169Z,86.44
2018-09-01T03:08:44.708Z,86.50
2018-09-01T03:11:13.302Z,86.27
2018-09-01T03:13:41.841Z,86.48
2018-09-01T03:16:10.309Z,85.86
2018-09-01T03:18:38.776Z,86.36
2018-09-01T03:21:07.582Z,86.68
2018-09-01T03:23:36.050Z,87.50
2018-09-01T03:26:04.545Z,86.36
2018-09-01T03:28:33.062Z,86.23
2018-09-01T03:31:01.591Z,86.21
2018-09-01T03:33:30.070Z,86.33
2018-09-01T03:35:58.561Z,86.53
2018-09-01T03:38:27.132Z,86.52
2018-09-01T03:40:55.588Z,86.75
2018-09-01T03:43:24.045Z,86.99
2018-09-01T03:45:52.470Z,86.29
2018-09-01T03:48:21.009Z,86.50
2018-09-01T03:50:49.469Z,86.08
2018-09-01T03:53:18.003Z,86.17
2018-09-01T03:55:46.473Z,86.03
2018-09-01T03:58:14.969Z,86.44
2018-09-01T04:00:43.536Z,86.64
2018-09-01T04:03:12.002Z,87.22
2018-09-01T04:05:40.477Z,86.67
2018-09-01T04:08:09.052Z,86.48
2018-09-01T04:10:37.514Z,86.63
2018-09-01T04:13:06.068Z,86.49
2018-09-01T04:15:34.515Z,86.44
2018-09-01T04:18:03.022Z,86.73
2018-09-01T04:20:31.505Z,86.78
2018-09-01T04:23:06.477Z,86.52
2018-09-01T04:25:34.993Z,86.87
2018-09-01T04:28:03.453Z,86.77
2018-09-01T04:30:31.914Z,86.82
2018-09-01T04:33:00.433Z,86.51
2018-09-01T04:35:28.932Z,86.17
2018-09-01T04:37:57.514Z,86.19
2018-09-01T04:40:25.970Z,86.07
2018-09-01T04:42:54.474Z,86.45
2018-09-01T04:45:22.929Z,86.53
2018-09-01T04:47:51.418Z,86.70
2018-09-01T04:50:19.918Z,87.24
2018-09-01T04:52:48.383Z,86.98
2018-09-01T04:55:16.876Z,87.57
2018-09-01T04:57:45.429Z,87.47
2018-09-01T05:00:18.075Z,87.92
2018-09-01T05:02:46.548Z,88.35
2018-09-01T05:05:15.026Z,88.00
2018-09-01T05:07:43.469Z,88.17
2018-09-01T05:10:11.943Z,88.45
2018-09-01T05:12:40.466Z,88.07
2018-09-01T05:15:08.994Z,87.77
2018-09-01T05:17:37.513Z,88.16
2018-09-01T05:20:05.974Z,88.10
2018-09-01T05:22:34.457Z,87.83
2018-09-01T05:25:02.973Z,88.41
2018-09-01T05:27:31.928Z,88.05
2018-09-01T05:30:00.462Z,88.21
2018-09-01T05:32:29.005Z,87.93
2018-09-01T05:34:57.516Z,88.00
2018-09-01T05:37:25.983Z,87.68
2018-09-01T05:39:54.603Z,88.05
2018-09-01T05:42:23.097Z,87.48
2018-09-01T05:44:51.646Z,87.59
2018-09-01T05:47:20.137Z,87.63
2018-09-01T05:49:48.615Z,86.53
2018-09-01T05:52:17.090Z,85.78
2018-09-01T05:54:45.570Z,86.39
2018-09-01T05:57:14.059Z,85.49
2018-09-01T05:59:42.621Z,84.10
2018-09-01T06:02:11.137Z,83.11
2018-09-01T06:04:39.617Z,82.66
2018-09-01T06:07:08.128Z,81.96
2018-09-01T06:09:36.605Z,80.96
2018-09-01T06:12:05.086Z,81.31
2018-09-01T06:14:33.590Z,81.57
2018-09-01T06:17:02.068Z,82.46
2018-09-01T06:19:30.617Z,72.64
2018-09-01T06:21:59.107Z,58.66
2018-09-01T06:24:27.611Z,53.36
2018-09-01T06:26:56.909Z,47.91
2018-09-01T06:29:25.404Z,47.44
2018-09-01T06:31:58.627Z,49.20
2018-09-01T06:34:27.237Z,55.48
2018-09-01T06:36:55.724Z,62.32
2018-09-01T06:39:30.854Z,67.54
2018-09-01T06:41:59.302Z,70.16
2018-09-01T06:44:27.785Z,71.94
2018-09-01T06:46:56.285Z,71.65
2018-09-01T06:49:24.855Z,72.30
2018-09-01T06:51:53.503Z,72.41
2018-09-01T06:54:21.972Z,72.14
2018-09-01T06:56:50.485Z,72.50
2018-09-01T06:59:18.995Z,72.45
2018-09-01T07:01:47.582Z,72.60
2018-09-01T07:04:16.050Z,71.12
2018-09-01T07:06:47.402Z,71.58
2018-09-01T07:09:15.888Z,71.04
2018-09-01T07:11:44.432Z,71.82
2018-09-01T07:14:12.941Z,71.73
2018-09-01T07:16:41.452Z,70.46
2018-09-01T07:19:09.965Z,69.43
2018-09-01T07:21:39.113Z,69.49
2018-09-01T07:24:07.583Z,68.46
2018-09-01T07:26:36.029Z,68.78
2018-09-01T07:29:04.525Z,68.47
2018-09-01T07:31:33.338Z,68.18
2018-09-01T07:34:01.699Z,68.09
2018-09-01T07:36:30.180Z,66.94
2018-09-01T07:38:58.706Z,66.96
2018-09-01T07:41:27.197Z,66.20
2018-09-01T07:43:55.698Z,67.01
2018-09-01T07:46:24.192Z,68.07
2018-09-01T07:48:52.692Z,66.69
2018-09-01T07:51:21.179Z,67.43
2018-09-01T07:53:49.674Z,67.55
2018-09-01T07:56:18.551Z,66.96
2018-09-01T07:58:47.002Z,66.45
2018-09-01T08:01:15.490Z,66.61
2018-09-01T08:03:44.014Z,65.93
2018-09-01T08:06:12.501Z,65.50
2018-09-01T08:08:41.266Z,64.87
2018-09-01T08:11:09.764Z,65.34
2018-09-01T08:13:38.327Z,64.62
2018-09-01T08:16:06.790Z,63.24
2018-09-01T08:18:35.610Z,63.32
2018-09-01T08:21:04.050Z,64.48
2018-09-01T08:23:32.485Z,64.35
2018-09-01T08:26:01.059Z,65.36
2018-09-01T08:28:29.564Z,65.54
2018-09-01T08:30:58.042Z,63.59
2018-09-01T08:33:26.567Z,62.75
2018-09-01T08:35:55.017Z,62.63
2018-09-01T08:38:23.485Z,63.61
2018-09-01T08:40:51.960Z,63.56
2018-09-01T08:43:20.494Z,63.75
2018-09-01T08:45:49.001Z,61.36
2018-09-01T08:48:17.663Z,62.47
2018-09-01T08:50:46.508Z,63.68
2018-09-01T08:53:14.994Z,63.21
2018-09-01T08:55:43.465Z,61.52
2018-09-01T08:58:11.972Z,61.50
2018-09-01T09:00:40.431Z,61.91
2018-09-01T09:03:08.890Z,61.66
2018-09-01T09:05:37.386Z,61.34
2018-09-01T09:08:05.930Z,59.57
2018-09-01T09:10:34.388Z,60.47
2018-09-01T09:13:02.890Z,59.16
2018-09-01T09:15:31.553Z,58.88
2018-09-01T09:18:00.013Z,57.18
2018-09-01T09:20:28.900Z,55.79
2018-09-01T09:22:57.469Z,58.22
2018-09-01T09:25:25.942Z,56.06
2018-09-01T09:27:54.465Z,54.46
2018-09-01T09:30:23.175Z,55.70
2018-09-01T09:32:52.025Z,55.16
2018-09-01T09:35:20.502Z,56.07
2018-09-01T09:37:48.969Z,53.19
2018-09-01T09:40:17.492Z,54.37
2018-09-01T09:42:45.947Z,54.63
2018-09-01T09:45:14.481Z,55.43
2018-09-01T09:47:42.944Z,54.38
2018-09-01T09:50:11.405Z,52.51
2018-09-01T09:52:39.902Z,52.23
2018-09-01T09:55:08.869Z,51.23
2018-09-01T09:57:37.384Z,50.53
2018-09-01T10:00:07.081Z,50.99
2018-09-01T10:02:35.617Z,52.53
2018-09-01T10:05:04.158Z,50.80
2018-09-01T10:07:32.638Z,49.76
2018-09-01T10:10:01.094Z,50.90
2018-09-01T10:12:29.605Z,50.22
2018-09-01T10:14:58.151Z,51.66
2018-09-01T10:17:26.644Z,50.52
2018-09-01T10:19:55.167Z,51.23
2018-09-01T10:22:23.640Z,50.86
2018-09-01T10:24:52.141Z,48.09
2018-09-01T10:27:20.641Z,48.23
2018-09-01T10:29:49.236Z,48.61
2018-09-01T10:32:17.701Z,49.22
2018-09-01T10:34:46.177Z,48.41
2018-09-01T10:37:14.753Z,48.33
2018-09-01T10:39:43.278Z,48.14
2018-09-01T10:42:11.793Z,47.06
2018-09-01T10:44:40.292Z,47.31
2018-09-01T10:47:08.765Z,47.29
2018-09-01T10:49:37.291Z,48.43
2018-09-01T10:52:05.791Z,49.00
2018-09-01T10:54:34.296Z,49.44
2018-09-01T10:57:02.749Z,49.36
2018-09-01T10:59:31.399Z,47.86
2018-09-01T11:01:59.760Z,46.82
2018-09-01T11:04:28.293Z,47.27
2018-09-01T11:06:56.829Z,46.40
2018-09-01T11:09:25.332Z,45.76
2018-09-01T11:11:54.256Z,46.17
2018-09-01T11:14:22.707Z,45.61
2018-09-01T11:16:51.189Z,46.30
2018-09-01T11:19:19.681Z,46.53
2018-09-01T11:21:48.160Z,46.60
2018-09-01T11:24:16.654Z,46.88
2018-09-01T11:26:45.130Z,43.68
2018-09-01T11:29:13.649Z,45.52
2018-09-01T11:31:42.135Z,43.83
2018-09-01T11:34:10.700Z,43.44
2018-09-01T11:36:39.167Z,43.28
2018-09-01T11:39:09.206Z,43.87
2018-09-01T11:41:37.745Z,44.34
2018-09-01T11:44:06.306Z,41.97
2018-09-01T11:46:34.830Z,44.34
2018-09-01T11:49:03.325Z,46.11
2018-09-01T11:51:31.842Z,46.39
2018-09-01T11:54:00.348Z,47.48
2018-09-01T11:56:28.885Z,47.68
2018-09-01T11:58:57.426Z,48.70
2018-09-01T12:01:25.817Z,48.36
2018-09-01T12:03:54.337Z,47.73
2018-09-01T12:06:22.802Z,48.37
2018-09-01T12:08:51.348Z,48.08
2018-09-01T12:12:48.929Z,45.85
2018-09-01T12:15:17.429Z,43.62
2018-09-01T12:17:46.165Z,41.65
2018-09-01T12:20:14.620Z,43.61
2018-09-01T12:22:43.118Z,43.26
2018-09-01T12:25:11.769Z,41.82
2018-09-01T12:27:40.245Z,40.57
2018-09-01T12:30:08.693Z,41.87
2018-09-01T12:32:37.185Z,43.51
2018-09-01T12:35:05.764Z,43.90
2018-09-01T12:37:34.280Z,42.55
2018-09-01T12:40:02.745Z,43.17
2018-09-01T12:42:31.634Z,42.87
2018-09-01T12:45:00.090Z,43.72
2018-09-01T12:47:28.592Z,44.74
2018-09-01T12:49:57.085Z,44.44
2018-09-01T12:52:25.582Z,43.31
2018-09-01T12:54:54.073Z,42.03
2018-09-01T12:57:22.620Z,43.16
2018-09-01T12:59:51.184Z,42.06
2018-09-01T13:02:20.012Z,42.24
2018-09-01T13:04:48.917Z,41.53
2018-09-01T13:07:17.378Z,40.99
2018-09-01T13:09:45.880Z,41.60
2018-09-01T13:12:14.373Z,41.08
2018-09-01T13:14:43.350Z,41.78
2018-09-01T13:17:12.540Z,40.40
2018-09-01T13:19:41.556Z,41.80
2018-09-01T13:22:09.991Z,43.77
2018-09-01T13:24:38.512Z,43.14
2018-09-01T13:27:07.069Z,43.86
2018-09-01T13:29:35.630Z,44.98
2018-09-01T13:32:04.204Z,45.63
2018-09-01T13:34:32.814Z,44.28
2018-09-01T13:37:01.306Z,46.91
2018-09-01T13:39:30.175Z,44.52
2018-09-01T13:41:58.643Z,44.27
2018-09-01T13:44:27.119Z,45.12
2018-09-01T13:46:55.614Z,43.62
2018-09-01T13:49:24.178Z,43.87
2018-09-01T13:51:52.650Z,44.36
2018-09-01T13:54:21.122Z,43.61
2018-09-01T13:56:49.635Z,45.29
2018-09-01T13:59:18.132Z,45.12
2018-09-01T14:01:46.637Z,43.52
2018-09-01T14:04:15.121Z,42.27
2018-09-01T14:06:43.594Z,43.50
2018-09-01T14:09:12.108Z,44.61
2018-09-01T14:11:40.668Z,43.95
2018-09-01T14:14:09.174Z,44.08
2018-09-01T14:16:37.901Z,42.74
2018-09-01T14:19:06.997Z,43.85
2018-09-01T14:21:35.517Z,42.97
2018-09-01T14:24:04.011Z,43.47
2018-09-01T14:26:32.495Z,43.19
2018-09-01T14:29:00.993Z,43.18
2018-09-01T14:31:29.570Z,42.86
2018-09-01T14:33:58.048Z,44.06
2018-09-01T14:36:26.644Z,43.54
2018-09-01T14:38:55.341Z,43.89
2018-09-01T14:41:23.789Z,45.72
2018-09-01T14:43:52.262Z,45.19
2018-09-01T14:46:20.789Z,43.23
2018-09-01T14:48:49.314Z,44.38
2018-09-01T14:51:17.857Z,43.29
2018-09-01T14:53:46.380Z,42.73
2018-09-01T14:56:14.882Z,41.91
2018-09-01T14:58:43.364Z,42.59
2018-09-01T15:01:11.889Z,42.08
2018-09-01T15:03:40.379Z,40.98
2018-09-01T15:06:08.862Z,43.27
2018-09-01T15:08:37.357Z,42.01
2018-09-01T15:11:05.849Z,44.40
2018-09-01T15:13:34.324Z,43.61
2018-09-01T15:16:02.880Z,43.73
2018-09-01T15:18:31.404Z,44.03
2018-09-01T15:20:59.929Z,44.37
2018-09-01T15:23:28.404Z,44.90
2018-09-01T15:25:56.905Z,45.46
2018-09-01T15:28:25.461Z,46.90
2018-09-01T15:30:53.944Z,48.03
2018-09-01T15:33:22.444Z,47.58
2018-09-01T15:35:52.225Z,48.20
2018-09-01T15:38:20.681Z,48.43
2018-09-01T15:40:49.221Z,48.18
2018-09-01T15:43:17.706Z,48.42
2018-09-01T15:45:46.247Z,47.68
2018-09-01T15:48:14.753Z,46.86
2018-09-01T15:50:43.287Z,46.51
2018-09-01T15:53:11.881Z,46.15
2018-09-01T15:55:40.326Z,44.81
2018-09-01T15:58:08.839Z,42.89
2018-09-01T16:00:37.326Z,43.94
2018-09-01T16:03:05.902Z,45.19
2018-09-01T16:05:34.405Z,45.74
2018-09-01T16:08:02.873Z,44.69
2018-09-01T16:10:31.554Z,45.30
2018-09-01T16:13:00.045Z,46.60
2018-09-01T16:15:28.534Z,46.30
2018-09-01T16:17:57.460Z,46.17
2018-09-01T16:20:25.974Z,45.90
2018-09-01T16:22:54.449Z,46.17
2018-09-01T16:25:22.919Z,46.51
2018-09-01T16:27:51.812Z,47.27
2018-09-01T16:30:20.330Z,46.32
2018-09-01T16:32:48.822Z,46.01
2018-09-01T16:35:17.289Z,47.03
2018-09-01T16:37:45.846Z,46.68
2018-09-01T16:40:14.364Z,45.90
2018-09-01T16:42:42.867Z,45.40
2018-09-01T16:45:11.553Z,46.96
2018-09-01T16:47:40.004Z,45.59
2018-09-01T16:50:08.732Z,45.05
2018-09-01T16:52:37.231Z,45.79
2018-09-01T16:55:05.796Z,45.85
2018-09-01T16:57:34.318Z,45.65
2018-09-01T17:00:02.785Z,45.17
2018-09-01T17:02:31.281Z,46.38
2018-09-01T17:04:59.840Z,45.71
2018-09-01T17:07:28.323Z,45.75
2018-09-01T17:09:56.942Z,46.10
2018-09-01T17:12:25.413Z,46.65
2018-09-01T17:14:53.928Z,46.73
2018-09-01T17:17:22.413Z,47.05
2018-09-01T17:19:51.313Z,47.54
2018-09-01T17:22:19.886Z,48.13
2018-09-01T17:24:48.348Z,48.05
2018-09-01T17:27:16.978Z,47.78
2018-09-01T17:29:45.437Z,48.74
2018-09-01T17:32:13.909Z,49.55
2018-09-01T17:34:42.426Z,49.82
2018-09-01T17:37:10.896Z,51.01
2018-09-01T17:39:39.392Z,51.77
2018-09-01T17:42:07.874Z,51.23
2018-09-01T17:44:36.493Z,51.71
2018-09-01T17:47:04.980Z,51.79
2018-09-01T17:49:33.512Z,52.06
2018-09-01T17:52:02.015Z,52.52
2018-09-01T17:54:30.861Z,53.20
2018-09-01T17:56:59.409Z,53.12
2018-09-01T18:00:52.352Z,53.74
2018-09-01T18:03:20.834Z,53.92
2018-09-01T18:05:49.509Z,54.05
2018-09-01T18:08:17.985Z,54.41
2018-09-01T18:10:46.458Z,54.52
2018-09-01T18:13:14.979Z,55.09
2018-09-01T18:15:43.432Z,55.94
2018-09-01T18:18:11.997Z,55.68
2018-09-01T18:20:40.536Z,56.19
2018-09-01T18:23:09.130Z,56.83
2018-09-01T18:25:37.958Z,57.60
2018-09-01T18:28:06.448Z,57.06
2018-09-01T18:30:35.209Z,58.17
2018-09-01T18:33:03.700Z,57.85
2018-09-01T18:35:32.182Z,58.25
2018-09-01T18:38:00.687Z,58.36
2018-09-01T18:40:29.164Z,59.13
2018-09-01T18:42:57.633Z,58.67
2018-09-01T18:45:26.185Z,59.57
2018-09-01T18:47:54.634Z,59.63
2018-09-01T18:50:23.149Z,59.14
2018-09-01T18:52:51.675Z,60.23
2018-09-01T18:55:20.175Z,60.58
2018-09-01T18:57:48.646Z,60.34
2018-09-01T19:00:17.134Z,60.68
2018-09-01T19:02:45.691Z,60.49
2018-09-01T19:05:14.188Z,61.16
2018-09-01T19:07:42.688Z,60.91
2018-09-01T19:10:11.197Z,61.17
2018-09-01T19:12:39.689Z,61.19
2018-09-01T19:15:08.224Z,61.56
2018-09-01T19:17:36.665Z,61.28
2018-09-01T19:20:05.425Z,61.96
2018-09-01T19:22:33.948Z,61.38
2018-09-01T19:25:02.547Z,61.93
2018-09-01T19:27:31.051Z,62.06
2018-09-01T19:29:59.545Z,62.35
2018-09-01T19:32:28.070Z,61.96
2018-09-01T19:34:56.574Z,62.34
2018-09-01T19:37:25.048Z,62.29
2018-09-01T19:39:53.558Z,62.37
2018-09-01T19:42:22.439Z,62.59
2018-09-01T19:44:51.000Z,62.25
2018-09-01T19:47:19.503Z,61.97
2018-09-01T19:49:48.003Z,61.58
2018-09-01T19:52:16.549Z,61.84
2018-09-01T19:54:45.520Z,61.93
2018-09-01T19:57:13.978Z,61.91
2018-09-01T19:59:42.438Z,62.13
2018-09-01T20:02:10.932Z,62.01
2018-09-01T20:04:39.453Z,62.37
2018-09-01T20:07:07.961Z,62.81
2018-09-01T20:09:36.420Z,62.86
2018-09-01T20:12:04.967Z,63.29
2018-09-01T20:14:33.521Z,62.80
2018-09-01T20:17:02.088Z,63.24
2018-09-01T20:19:30.626Z,64.36
2018-09-01T20:21:59.093Z,64.43
2018-09-01T20:24:27.570Z,65.06
2018-09-01T20:26:56.173Z,64.32
2018-09-01T20:29:24.682Z,64.73
2018-09-01T20:31:53.169Z,65.30
2018-09-01T20:34:21.633Z,65.65
2018-09-01T20:36:50.172Z,65.76
2018-09-01T20:39:18.635Z,66.01
2018-09-01T20:41:47.118Z,66.86
2018-09-01T20:44:15.696Z,66.79
2018-09-01T20:46:44.378Z,66.83
2018-09-01T20:49:12.873Z,67.84
2018-09-01T20:51:41.357Z,67.80
2018-09-01T20:54:09.910Z,67.67
2018-09-01T20:56:38.422Z,69.04
2018-09-01T20:59:06.941Z,69.36
2018-09-01T21:01:35.494Z,69.21
2018-09-01T21:04:03.939Z,69.73
2018-09-01T21:06:32.508Z,70.85
2018-09-01T21:09:01.068Z,70.90
2018-09-01T21:11:29.562Z,71.23
2018-09-01T21:13:58.030Z,71.71
2018-09-01T21:16:26.581Z,71.73
2018-09-01T21:18:55.082Z,72.03
2018-09-01T21:21:23.628Z,73.17
2018-09-01T21:23:52.113Z,72.81
2018-09-01T21:26:20.612Z,73.42
2018-09-01T21:28:49.124Z,73.12
2018-09-01T21:31:18.049Z,73.28
2018-09-01T21:33:46.514Z,74.09
2018-09-01T21:36:15.069Z,73.84
2018-09-01T21:38:43.549Z,74.22
2018-09-01T21:41:12.017Z,74.36
2018-09-01T21:43:40.549Z,73.97
2018-09-01T21:46:09.097Z,75.15
2018-09-01T21:48:37.565Z,74.92
2018-09-01T21:51:06.160Z,75.48
2018-09-01T21:53:34.965Z,75.28
2018-09-01T21:56:03.564Z,75.15
2018-09-01T21:58:32.021Z,76.34
2018-09-01T22:01:05.871Z,76.37
2018-09-01T22:03:37.910Z,76.96
2018-09-01T22:06:06.452Z,76.51
2018-09-01T22:08:34.910Z,77.01
2018-09-01T22:11:03.406Z,77.56
2018-09-01T22:13:31.962Z,77.74
2018-09-01T22:16:00.453Z,77.62
2018-09-01T22:18:28.969Z,77.48
2018-09-01T22:20:57.445Z,77.63
2018-09-01T22:23:25.977Z,77.67
2018-09-01T22:25:54.525Z,78.25
2018-09-01T22:28:23.041Z,78.43
2018-09-01T22:30:51.520Z,78.14
2018-09-01T22:33:20.065Z,78.81
2018-09-01T22:35:48.530Z,78.83
2018-09-01T22:38:17.090Z,78.99
2018-09-01T22:40:45.590Z,79.14
2018-09-01T22:43:14.089Z,79.61
2018-09-01T22:45:42.597Z,79.43
2018-09-01T22:48:11.101Z,80.34
2018-09-01T22:50:39.604Z,80.39
2018-09-01T22:53:08.101Z,79.70
2018-09-01T22:55:36.598Z,79.74
2018-09-01T22:58:05.193Z,80.04
2018-09-01T23:00:33.674Z,80.82
2018-09-01T23:03:02.210Z,80.38
2018-09-01T23:05:30.747Z,80.65
2018-09-01T23:07:59.221Z,81.28
2018-09-01T23:10:28.111Z,81.20
2018-09-01T23:12:56.662Z,81.06
2018-09-01T23:15:25.219Z,81.54
2018-09-01T23:17:53.696Z,81.95
2018-09-01T23:20:22.235Z,81.55
2018-09-01T23:22:50.712Z,82.16
2018-09-01T23:25:19.194Z,81.82
2018-09-01T23:27:47.730Z,81.33
2018-09-01T23:30:16.225Z,81.82
2018-09-01T23:32:44.793Z,81.89
2018-09-01T23:35:13.352Z,82.07
2018-09-01T23:37:41.825Z,82.21
2018-09-01T23:40:10.305Z,82.61
2018-09-01T23:42:38.864Z,82.30
2018-09-01T23:45:07.329Z,82.40
2018-09-01T23:47:35.785Z,82.96
2018-09-01T23:50:04.382Z,83.03
2018-09-01T23:52:32.830Z,82.56
2018-09-01T23:55:01.348Z,83.08
2018-09-01T23:57:29.849Z,83.28
2018-09-01T23:59:58.325Z,83.19
